sensor_id;sensor_type;location;lat;lon;timestamp;P1;durP1;ratioP1;P2;durP2;ratioP2
43048;SDS011;28673;44.412;11.918;2023-05-09T00:01:35;17.30;;;11.48;;
43048;SDS011;28673;44.412;11.918;2023-05-09T00:04:02;16.98;;;11.48;;
43048;SDS011;28673;44.412;11.918;2023-05-09T00:06:28;14.60;;;10.27;;
43048;SDS011;28673;44.412;11.918;2023-05-09T00:08:54;13.43;;;9.50;;
43048;SDS011;28673;44.412;11.918;2023-05-09T00:11:20;15.43;;;8.85;;
43048;SDS011;28673;44.412;11.918;2023-05-09T00:13:48;8.95;;;5.35;;
43048;SDS011;28673;44.412;11.918;2023-05-09T00:16:15;13.30;;;6.85;;
43048;SDS011;28673;44.412;11.918;2023-05-09T00:18:45;8.68;;;5.45;;
43048;SDS011;28673;44.412;11.918;2023-05-09T00:21:11;7.15;;;5.82;;
43048;SDS011;28673;44.412;11.918;2023-05-09T00:23:37;6.30;;;5.60;;
43048;SDS011;28673;44.412;11.918;2023-05-09T00:26:03;7.53;;;4.90;;
43048;SDS011;28673;44.412;11.918;2023-05-09T00:28:29;6.50;;;5.47;;
43048;SDS011;28673;44.412;11.918;2023-05-09T00:30:58;7.72;;;5.25;;
43048;SDS011;28673;44.412;11.918;2023-05-09T00:33:24;7.78;;;5.03;;
43048;SDS011;28673;44.412;11.918;2023-05-09T00:35:52;5.82;;;4.63;;
43048;SDS011;28673;44.412;11.918;2023-05-09T00:38:27;5.53;;;4.60;;
43048;SDS011;28673;44.412;11.918;2023-05-09T00:41:04;6.40;;;4.45;;
43048;SDS011;28673;44.412;11.918;2023-05-09T00:43:36;5.55;;;3.88;;
43048;SDS011;28673;44.412;11.918;2023-05-09T00:46:03;5.35;;;4.10;;
43048;SDS011;28673;44.412;11.918;2023-05-09T00:48:31;6.88;;;4.50;;
43048;SDS011;28673;44.412;11.918;2023-05-09T00:50:56;5.60;;;4.55;;
43048;SDS011;28673;44.412;11.918;2023-05-09T00:53:23;6.03;;;4.18;;
43048;SDS011;28673;44.412;11.918;2023-05-09T00:55:49;10.30;;;4.22;;
43048;SDS011;28673;44.412;11.918;2023-05-09T00:58:15;8.40;;;3.78;;
43048;SDS011;28673;44.412;11.918;2023-05-09T01:00:43;5.43;;;4.18;;
43048;SDS011;28673;44.412;11.918;2023-05-09T01:03:09;7.65;;;5.22;;
43048;SDS011;28673;44.412;11.918;2023-05-09T01:05:55;6.03;;;4.38;;
43048;SDS011;28673;44.412;11.918;2023-05-09T01:08:36;11.93;;;4.50;;
43048;SDS011;28673;44.412;11.918;2023-05-09T01:11:11;8.43;;;4.95;;
43048;SDS011;28673;44.412;11.918;2023-05-09T01:16:37;9.15;;;5.60;;
43048;SDS011;28673;44.412;11.918;2023-05-09T01:19:18;9.02;;;4.97;;
43048;SDS011;28673;44.412;11.918;2023-05-09T01:21:55;6.97;;;5.60;;
43048;SDS011;28673;44.412;11.918;2023-05-09T01:30:26;10.57;;;7.50;;
43048;SDS011;28673;44.412;11.918;2023-05-09T01:32:55;11.52;;;6.50;;
43048;SDS011;28673;44.412;11.918;2023-05-09T01:35:25;8.18;;;5.90;;
43048;SDS011;28673;44.412;11.918;2023-05-09T01:37:56;9.95;;;6.35;;
43048;SDS011;28673;44.412;11.918;2023-05-09T01:40:23;9.95;;;6.40;;
43048;SDS011;28673;44.412;11.918;2023-05-09T01:42:55;10.32;;;5.53;;
43048;SDS011;28673;44.412;11.918;2023-05-09T01:45:24;7.95;;;5.53;;
43048;SDS011;28673;44.412;11.918;2023-05-09T01:47:52;10.18;;;6.18;;
43048;SDS011;28673;44.412;11.918;2023-05-09T01:50:19;8.20;;;5.47;;
43048;SDS011;28673;44.412;11.918;2023-05-09T01:52:48;6.65;;;5.72;;
43048;SDS011;28673;44.412;11.918;2023-05-09T01:55:19;8.55;;;6.05;;
43048;SDS011;28673;44.412;11.918;2023-05-09T01:57:49;14.38;;;8.32;;
43048;SDS011;28673;44.412;11.918;2023-05-09T02:00:16;8.35;;;6.22;;
43048;SDS011;28673;44.412;11.918;2023-05-09T02:02:44;11.88;;;6.65;;
43048;SDS011;28673;44.412;11.918;2023-05-09T02:05:14;10.02;;;6.85;;
43048;SDS011;28673;44.412;11.918;2023-05-09T02:07:41;15.20;;;8.90;;
43048;SDS011;28673;44.412;11.918;2023-05-09T02:10:08;11.15;;;7.95;;
43048;SDS011;28673;44.412;11.918;2023-05-09T02:12:35;10.65;;;7.85;;
43048;SDS011;28673;44.412;11.918;2023-05-09T02:15:02;10.30;;;8.20;;
43048;SDS011;28673;44.412;11.918;2023-05-09T02:17:29;13.35;;;8.93;;
43048;SDS011;28673;44.412;11.918;2023-05-09T02:19:56;14.40;;;9.07;;
43048;SDS011;28673;44.412;11.918;2023-05-09T02:22:22;12.25;;;8.82;;
43048;SDS011;28673;44.412;11.918;2023-05-09T02:24:48;12.82;;;9.65;;
43048;SDS011;28673;44.412;11.918;2023-05-09T02:27:15;10.25;;;8.60;;
43048;SDS011;28673;44.412;11.918;2023-05-09T02:29:45;11.70;;;9.07;;
43048;SDS011;28673;44.412;11.918;2023-05-09T02:32:15;13.13;;;9.15;;
43048;SDS011;28673;44.412;11.918;2023-05-09T02:34:45;13.97;;;10.70;;
43048;SDS011;28673;44.412;11.918;2023-05-09T02:37:13;12.73;;;10.00;;
43048;SDS011;28673;44.412;11.918;2023-05-09T02:39:40;13.27;;;10.10;;
43048;SDS011;28673;44.412;11.918;2023-05-09T02:42:07;14.45;;;11.15;;
43048;SDS011;28673;44.412;11.918;2023-05-09T02:44:34;15.35;;;11.27;;
43048;SDS011;28673;44.412;11.918;2023-05-09T02:47:00;24.13;;;13.63;;
43048;SDS011;28673;44.412;11.918;2023-05-09T02:49:27;16.25;;;12.57;;
43048;SDS011;28673;44.412;11.918;2023-05-09T02:51:53;19.20;;;13.35;;
43048;SDS011;28673;44.412;11.918;2023-05-09T02:54:19;20.60;;;10.95;;
43048;SDS011;28673;44.412;11.918;2023-05-09T02:56:47;14.63;;;11.80;;
43048;SDS011;28673;44.412;11.918;2023-05-09T02:59:13;17.27;;;12.23;;
43048;SDS011;28673;44.412;11.918;2023-05-09T03:01:39;20.30;;;12.40;;
43048;SDS011;28673;44.412;11.918;2023-05-09T03:04:07;15.48;;;11.75;;
43048;SDS011;28673;44.412;11.918;2023-05-09T03:06:34;13.90;;;11.40;;
43048;SDS011;28673;44.412;11.918;2023-05-09T03:09:00;16.48;;;12.88;;
43048;SDS011;28673;44.412;11.918;2023-05-09T03:11:28;23.88;;;13.52;;
43048;SDS011;28673;44.412;11.918;2023-05-09T03:13:55;18.08;;;13.07;;
43048;SDS011;28673;44.412;11.918;2023-05-09T03:16:21;16.52;;;12.90;;
43048;SDS011;28673;44.412;11.918;2023-05-09T03:18:48;15.43;;;11.15;;
43048;SDS011;28673;44.412;11.918;2023-05-09T03:21:14;14.20;;;11.40;;
43048;SDS011;28673;44.412;11.918;2023-05-09T03:23:40;17.80;;;12.10;;
43048;SDS011;28673;44.412;11.918;2023-05-09T03:26:07;15.40;;;10.88;;
43048;SDS011;28673;44.412;11.918;2023-05-09T03:28:33;13.50;;;11.32;;
43048;SDS011;28673;44.412;11.918;2023-05-09T03:31:03;17.67;;;11.35;;
43048;SDS011;28673;44.412;11.918;2023-05-09T03:33:29;14.95;;;10.93;;
43048;SDS011;28673;44.412;11.918;2023-05-09T03:35:57;14.18;;;10.95;;
43048;SDS011;28673;44.412;11.918;2023-05-09T03:38:23;17.08;;;11.85;;
43048;SDS011;28673;44.412;11.918;2023-05-09T03:40:49;16.58;;;12.52;;
43048;SDS011;28673;44.412;11.918;2023-05-09T03:43:19;17.13;;;12.00;;
43048;SDS011;28673;44.412;11.918;2023-05-09T03:45:45;13.88;;;11.55;;
43048;SDS011;28673;44.412;11.918;2023-05-09T03:48:13;17.10;;;11.68;;
43048;SDS011;28673;44.412;11.918;2023-05-09T03:50:45;26.27;;;13.82;;
43048;SDS011;28673;44.412;11.918;2023-05-09T03:53:12;16.85;;;12.88;;
43048;SDS011;28673;44.412;11.918;2023-05-09T03:55:38;20.98;;;15.90;;
43048;SDS011;28673;44.412;11.918;2023-05-09T03:58:05;17.33;;;12.75;;
43048;SDS011;28673;44.412;11.918;2023-05-09T04:00:34;20.95;;;14.70;;
43048;SDS011;28673;44.412;11.918;2023-05-09T04:03:08;16.30;;;12.95;;
43048;SDS011;28673;44.412;11.918;2023-05-09T04:05:39;15.27;;;12.55;;
43048;SDS011;28673;44.412;11.918;2023-05-09T04:08:10;17.38;;;12.95;;
43048;SDS011;28673;44.412;11.918;2023-05-09T04:10:38;17.42;;;12.35;;
43048;SDS011;28673;44.412;11.918;2023-05-09T04:13:04;19.55;;;12.43;;
43048;SDS011;28673;44.412;11.918;2023-05-09T04:15:30;15.60;;;12.52;;
43048;SDS011;28673;44.412;11.918;2023-05-09T04:17:57;22.52;;;13.95;;
43048;SDS011;28673;44.412;11.918;2023-05-09T04:20:23;16.40;;;12.50;;
43048;SDS011;28673;44.412;11.918;2023-05-09T04:22:50;18.00;;;11.73;;
43048;SDS011;28673;44.412;11.918;2023-05-09T04:25:17;20.55;;;12.70;;
43048;SDS011;28673;44.412;11.918;2023-05-09T04:27:45;15.65;;;11.77;;
43048;SDS011;28673;44.412;11.918;2023-05-09T04:30:11;16.42;;;11.27;;
43048;SDS011;28673;44.412;11.918;2023-05-09T04:32:37;13.90;;;11.73;;
43048;SDS011;28673;44.412;11.918;2023-05-09T04:35:03;14.75;;;10.68;;
43048;SDS011;28673;44.412;11.918;2023-05-09T04:37:36;12.63;;;10.82;;
43048;SDS011;28673;44.412;11.918;2023-05-09T04:40:03;20.35;;;12.23;;
43048;SDS011;28673;44.412;11.918;2023-05-09T04:42:38;21.88;;;14.50;;
43048;SDS011;28673;44.412;11.918;2023-05-09T04:45:05;17.25;;;13.32;;
43048;SDS011;28673;44.412;11.918;2023-05-09T04:47:37;16.27;;;11.50;;
43048;SDS011;28673;44.412;11.918;2023-05-09T04:50:03;17.05;;;12.57;;
43048;SDS011;28673;44.412;11.918;2023-05-09T04:52:30;16.52;;;12.55;;
43048;SDS011;28673;44.412;11.918;2023-05-09T04:54:56;21.05;;;12.95;;
43048;SDS011;28673;44.412;11.918;2023-05-09T04:57:24;21.50;;;13.35;;
43048;SDS011;28673;44.412;11.918;2023-05-09T04:59:54;18.15;;;13.20;;
43048;SDS011;28673;44.412;11.918;2023-05-09T05:02:23;17.25;;;13.15;;
43048;SDS011;28673;44.412;11.918;2023-05-09T05:04:50;20.08;;;13.18;;
43048;SDS011;28673;44.412;11.918;2023-05-09T05:07:17;21.40;;;13.57;;
43048;SDS011;28673;44.412;11.918;2023-05-09T05:09:43;18.58;;;13.93;;
43048;SDS011;28673;44.412;11.918;2023-05-09T05:12:10;16.13;;;13.57;;
43048;SDS011;28673;44.412;11.918;2023-05-09T05:14:38;13.38;;;11.63;;
43048;SDS011;28673;44.412;11.918;2023-05-09T05:17:06;17.20;;;13.45;;
43048;SDS011;28673;44.412;11.918;2023-05-09T05:19:33;15.52;;;12.43;;
43048;SDS011;28673;44.412;11.918;2023-05-09T05:22:00;20.75;;;13.85;;
43048;SDS011;28673;44.412;11.918;2023-05-09T05:24:29;16.70;;;12.32;;
43048;SDS011;28673;44.412;11.918;2023-05-09T05:26:55;18.05;;;12.63;;
43048;SDS011;28673;44.412;11.918;2023-05-09T05:29:24;21.45;;;14.15;;
43048;SDS011;28673;44.412;11.918;2023-05-09T05:31:50;24.65;;;14.02;;
43048;SDS011;28673;44.412;11.918;2023-05-09T05:34:15;24.35;;;14.45;;
43048;SDS011;28673;44.412;11.918;2023-05-09T05:36:42;23.92;;;14.40;;
43048;SDS011;28673;44.412;11.918;2023-05-09T05:39:09;19.27;;;13.35;;
43048;SDS011;28673;44.412;11.918;2023-05-09T05:41:35;18.58;;;12.18;;
43048;SDS011;28673;44.412;11.918;2023-05-09T05:44:03;15.82;;;11.50;;
43048;SDS011;28673;44.412;11.918;2023-05-09T05:46:29;20.80;;;12.50;;
43048;SDS011;28673;44.412;11.918;2023-05-09T05:48:55;21.40;;;11.75;;
43048;SDS011;28673;44.412;11.918;2023-05-09T05:51:22;12.80;;;10.45;;
43048;SDS011;28673;44.412;11.918;2023-05-09T05:53:47;28.15;;;11.30;;
43048;SDS011;28673;44.412;11.918;2023-05-09T05:56:14;18.55;;;10.73;;
43048;SDS011;28673;44.412;11.918;2023-05-09T05:58:40;18.77;;;10.55;;
43048;SDS011;28673;44.412;11.918;2023-05-09T06:01:06;15.43;;;9.82;;
43048;SDS011;28673;44.412;11.918;2023-05-09T06:03:32;13.77;;;10.40;;
43048;SDS011;28673;44.412;11.918;2023-05-09T06:06:02;14.32;;;9.85;;
43048;SDS011;28673;44.412;11.918;2023-05-09T06:08:30;18.20;;;10.27;;
43048;SDS011;28673;44.412;11.918;2023-05-09T06:10:57;13.75;;;10.13;;
43048;SDS011;28673;44.412;11.918;2023-05-09T06:13:24;15.13;;;9.30;;
43048;SDS011;28673;44.412;11.918;2023-05-09T06:15:55;13.15;;;9.70;;
43048;SDS011;28673;44.412;11.918;2023-05-09T06:18:22;11.85;;;8.98;;
43048;SDS011;28673;44.412;11.918;2023-05-09T06:20:47;14.65;;;10.07;;
43048;SDS011;28673;44.412;11.918;2023-05-09T06:23:13;13.15;;;9.60;;
43048;SDS011;28673;44.412;11.918;2023-05-09T06:25:39;11.07;;;8.68;;
43048;SDS011;28673;44.412;11.918;2023-05-09T06:28:05;13.23;;;10.07;;
43048;SDS011;28673;44.412;11.918;2023-05-09T06:30:31;15.68;;;9.75;;
43048;SDS011;28673;44.412;11.918;2023-05-09T06:32:57;20.05;;;11.60;;
43048;SDS011;28673;44.412;11.918;2023-05-09T06:35:24;14.48;;;9.13;;
43048;SDS011;28673;44.412;11.918;2023-05-09T06:37:50;17.15;;;10.23;;
43048;SDS011;28673;44.412;11.918;2023-05-09T06:40:15;12.70;;;10.00;;
43048;SDS011;28673;44.412;11.918;2023-05-09T06:42:42;16.98;;;10.15;;
43048;SDS011;28673;44.412;11.918;2023-05-09T06:45:07;12.55;;;9.90;;
43048;SDS011;28673;44.412;11.918;2023-05-09T06:47:36;15.00;;;10.27;;
43048;SDS011;28673;44.412;11.918;2023-05-09T06:50:02;15.00;;;10.13;;
43048;SDS011;28673;44.412;11.918;2023-05-09T06:52:28;14.13;;;9.57;;
43048;SDS011;28673;44.412;11.918;2023-05-09T06:54:54;14.05;;;9.98;;
43048;SDS011;28673;44.412;11.918;2023-05-09T06:57:20;12.60;;;9.18;;
43048;SDS011;28673;44.412;11.918;2023-05-09T06:59:45;20.50;;;12.07;;
43048;SDS011;28673;44.412;11.918;2023-05-09T07:02:14;17.58;;;9.82;;
43048;SDS011;28673;44.412;11.918;2023-05-09T07:04:40;13.25;;;8.98;;
43048;SDS011;28673;44.412;11.918;2023-05-09T07:07:09;14.73;;;9.45;;
43048;SDS011;28673;44.412;11.918;2023-05-09T07:09:35;13.15;;;9.32;;
43048;SDS011;28673;44.412;11.918;2023-05-09T07:12:00;12.88;;;9.18;;
43048;SDS011;28673;44.412;11.918;2023-05-09T07:14:29;11.60;;;9.82;;
43048;SDS011;28673;44.412;11.918;2023-05-09T07:16:55;14.98;;;10.05;;
43048;SDS011;28673;44.412;11.918;2023-05-09T07:19:21;13.75;;;10.23;;
43048;SDS011;28673;44.412;11.918;2023-05-09T07:21:46;10.93;;;9.25;;
43048;SDS011;28673;44.412;11.918;2023-05-09T07:24:12;14.93;;;9.45;;
43048;SDS011;28673;44.412;11.918;2023-05-09T07:26:38;12.02;;;9.48;;
43048;SDS011;28673;44.412;11.918;2023-05-09T07:29:04;15.35;;;10.52;;
43048;SDS011;28673;44.412;11.918;2023-05-09T07:31:30;15.88;;;11.50;;
43048;SDS011;28673;44.412;11.918;2023-05-09T07:33:56;18.17;;;11.35;;
43048;SDS011;28673;44.412;11.918;2023-05-09T07:36:25;15.85;;;10.93;;
43048;SDS011;28673;44.412;11.918;2023-05-09T07:38:50;14.88;;;11.23;;
43048;SDS011;28673;44.412;11.918;2023-05-09T07:41:17;12.05;;;9.13;;
43048;SDS011;28673;44.412;11.918;2023-05-09T07:43:43;13.07;;;8.90;;
43048;SDS011;28673;44.412;11.918;2023-05-09T07:46:09;15.35;;;10.15;;
43048;SDS011;28673;44.412;11.918;2023-05-09T07:48:35;26.02;;;11.73;;
43048;SDS011;28673;44.412;11.918;2023-05-09T07:51:01;14.25;;;11.02;;
43048;SDS011;28673;44.412;11.918;2023-05-09T07:53:27;19.98;;;11.82;;
43048;SDS011;28673;44.412;11.918;2023-05-09T07:55:53;15.68;;;10.95;;
43048;SDS011;28673;44.412;11.918;2023-05-09T07:58:18;15.63;;;10.18;;
43048;SDS011;28673;44.412;11.918;2023-05-09T08:00:44;18.60;;;13.70;;
43048;SDS011;28673;44.412;11.918;2023-05-09T08:03:10;17.02;;;11.82;;
43048;SDS011;28673;44.412;11.918;2023-05-09T08:05:41;12.85;;;10.05;;
43048;SDS011;28673;44.412;11.918;2023-05-09T08:08:07;14.05;;;10.88;;
43048;SDS011;28673;44.412;11.918;2023-05-09T08:10:33;13.88;;;10.27;;
43048;SDS011;28673;44.412;11.918;2023-05-09T08:12:59;15.27;;;10.45;;
43048;SDS011;28673;44.412;11.918;2023-05-09T08:15:25;15.98;;;9.95;;
43048;SDS011;28673;44.412;11.918;2023-05-09T08:17:51;17.85;;;10.85;;
43048;SDS011;28673;44.412;11.918;2023-05-09T08:20:16;16.00;;;10.43;;
43048;SDS011;28673;44.412;11.918;2023-05-09T08:22:42;15.23;;;9.90;;
43048;SDS011;28673;44.412;11.918;2023-05-09T08:25:08;18.75;;;10.27;;
43048;SDS011;28673;44.412;11.918;2023-05-09T08:27:36;16.35;;;11.20;;
43048;SDS011;28673;44.412;11.918;2023-05-09T08:30:02;15.25;;;10.88;;
43048;SDS011;28673;44.412;11.918;2023-05-09T08:32:28;19.17;;;11.82;;
43048;SDS011;28673;44.412;11.918;2023-05-09T08:34:54;14.05;;;10.48;;
43048;SDS011;28673;44.412;11.918;2023-05-09T08:37:20;20.05;;;12.02;;
43048;SDS011;28673;44.412;11.918;2023-05-09T08:39:49;15.98;;;10.05;;
43048;SDS011;28673;44.412;11.918;2023-05-09T08:42:14;17.65;;;11.88;;
43048;SDS011;28673;44.412;11.918;2023-05-09T08:44:44;16.33;;;11.43;;
43048;SDS011;28673;44.412;11.918;2023-05-09T08:47:10;16.40;;;10.32;;
43048;SDS011;28673;44.412;11.918;2023-05-09T08:49:36;15.68;;;9.98;;
43048;SDS011;28673;44.412;11.918;2023-05-09T08:52:03;19.75;;;11.70;;
43048;SDS011;28673;44.412;11.918;2023-05-09T08:54:29;13.95;;;11.65;;
43048;SDS011;28673;44.412;11.918;2023-05-09T08:56:55;12.48;;;10.80;;
43048;SDS011;28673;44.412;11.918;2023-05-09T08:59:21;11.75;;;9.13;;
43048;SDS011;28673;44.412;11.918;2023-05-09T09:01:48;14.15;;;12.15;;
43048;SDS011;28673;44.412;11.918;2023-05-09T09:04:15;17.85;;;12.43;;
43048;SDS011;28673;44.412;11.918;2023-05-09T09:06:40;16.40;;;11.50;;
43048;SDS011;28673;44.412;11.918;2023-05-09T09:09:07;22.92;;;12.48;;
43048;SDS011;28673;44.412;11.918;2023-05-09T09:11:34;15.43;;;10.75;;
43048;SDS011;28673;44.412;11.918;2023-05-09T09:14:02;17.90;;;11.57;;
43048;SDS011;28673;44.412;11.918;2023-05-09T09:16:37;16.33;;;10.35;;
43048;SDS011;28673;44.412;11.918;2023-05-09T09:19:10;14.18;;;9.95;;
43048;SDS011;28673;44.412;11.918;2023-05-09T09:21:41;15.02;;;11.88;;
43048;SDS011;28673;44.412;11.918;2023-05-09T09:24:11;16.33;;;10.85;;
43048;SDS011;28673;44.412;11.918;2023-05-09T09:26:44;12.45;;;10.50;;
43048;SDS011;28673;44.412;11.918;2023-05-09T09:29:13;13.68;;;10.45;;
43048;SDS011;28673;44.412;11.918;2023-05-09T09:31:39;14.13;;;10.45;;
43048;SDS011;28673;44.412;11.918;2023-05-09T09:34:11;11.00;;;9.95;;
43048;SDS011;28673;44.412;11.918;2023-05-09T09:36:43;13.85;;;10.48;;
43048;SDS011;28673;44.412;11.918;2023-05-09T09:39:12;12.00;;;10.73;;
43048;SDS011;28673;44.412;11.918;2023-05-09T09:41:38;16.50;;;9.80;;
43048;SDS011;28673;44.412;11.918;2023-05-09T09:44:09;14.52;;;10.38;;
43048;SDS011;28673;44.412;11.918;2023-05-09T09:46:54;15.25;;;10.35;;
43048;SDS011;28673;44.412;11.918;2023-05-09T09:49:21;17.35;;;9.25;;
43048;SDS011;28673;44.412;11.918;2023-05-09T09:51:49;13.38;;;10.52;;
43048;SDS011;28673;44.412;11.918;2023-05-09T09:54:16;12.98;;;10.52;;
43048;SDS011;28673;44.412;11.918;2023-05-09T09:59:16;11.32;;;10.02;;
43048;SDS011;28673;44.412;11.918;2023-05-09T10:02:02;11.65;;;9.25;;
43048;SDS011;28673;44.412;11.918;2023-05-09T10:04:32;12.57;;;8.98;;
43048;SDS011;28673;44.412;11.918;2023-05-09T10:07:00;13.40;;;9.35;;
43048;SDS011;28673;44.412;11.918;2023-05-09T10:09:29;15.07;;;10.25;;
43048;SDS011;28673;44.412;11.918;2023-05-09T10:11:56;10.70;;;8.90;;
43048;SDS011;28673;44.412;11.918;2023-05-09T10:14:33;10.45;;;8.52;;
43048;SDS011;28673;44.412;11.918;2023-05-09T10:17:00;15.38;;;9.93;;
43048;SDS011;28673;44.412;11.918;2023-05-09T10:19:28;12.45;;;9.75;;
43048;SDS011;28673;44.412;11.918;2023-05-09T10:21:56;12.30;;;9.63;;
43048;SDS011;28673;44.412;11.918;2023-05-09T10:24:38;13.75;;;10.30;;
43048;SDS011;28673;44.412;11.918;2023-05-09T10:27:11;13.30;;;9.93;;
43048;SDS011;28673;44.412;11.918;2023-05-09T10:29:48;14.52;;;11.02;;
43048;SDS011;28673;44.412;11.918;2023-05-09T10:32:23;14.95;;;10.50;;
43048;SDS011;28673;44.412;11.918;2023-05-09T10:34:57;13.85;;;10.27;;
43048;SDS011;28673;44.412;11.918;2023-05-09T10:37:28;15.32;;;10.50;;
43048;SDS011;28673;44.412;11.918;2023-05-09T10:39:55;13.57;;;11.10;;
43048;SDS011;28673;44.412;11.918;2023-05-09T10:42:22;15.23;;;10.82;;
43048;SDS011;28673;44.412;11.918;2023-05-09T10:44:50;14.93;;;10.23;;
43048;SDS011;28673;44.412;11.918;2023-05-09T10:47:17;13.07;;;10.40;;
43048;SDS011;28673;44.412;11.918;2023-05-09T10:49:44;12.60;;;10.93;;
43048;SDS011;28673;44.412;11.918;2023-05-09T10:52:11;17.77;;;12.05;;
43048;SDS011;28673;44.412;11.918;2023-05-09T10:54:38;14.15;;;10.77;;
43048;SDS011;28673;44.412;11.918;2023-05-09T10:57:07;13.85;;;11.57;;
43048;SDS011;28673;44.412;11.918;2023-05-09T10:59:40;16.33;;;10.93;;
43048;SDS011;28673;44.412;11.918;2023-05-09T11:02:14;11.23;;;9.35;;
43048;SDS011;28673;44.412;11.918;2023-05-09T11:04:44;13.05;;;9.40;;
43048;SDS011;28673;44.412;11.918;2023-05-09T11:07:23;12.60;;;9.10;;
43048;SDS011;28673;44.412;11.918;2023-05-09T11:10:06;14.57;;;9.98;;
43048;SDS011;28673;44.412;11.918;2023-05-09T11:12:33;14.27;;;9.40;;
43048;SDS011;28673;44.412;11.918;2023-05-09T11:15:23;15.50;;;8.73;;
43048;SDS011;28673;44.412;11.918;2023-05-09T11:18:05;11.27;;;8.60;;
43048;SDS011;28673;44.412;11.918;2023-05-09T11:20:34;13.00;;;8.40;;
43048;SDS011;28673;44.412;11.918;2023-05-09T11:23:07;14.23;;;8.57;;
43048;SDS011;28673;44.412;11.918;2023-05-09T11:25:36;8.75;;;7.88;;
43048;SDS011;28673;44.412;11.918;2023-05-09T11:28:03;9.80;;;7.07;;
43048;SDS011;28673;44.412;11.918;2023-05-09T11:30:40;9.85;;;7.72;;
43048;SDS011;28673;44.412;11.918;2023-05-09T11:33:23;8.73;;;7.28;;
43048;SDS011;28673;44.412;11.918;2023-05-09T11:38:45;9.90;;;6.80;;
43048;SDS011;28673;44.412;11.918;2023-05-09T11:41:14;9.87;;;7.40;;
43048;SDS011;28673;44.412;11.918;2023-05-09T11:43:41;7.50;;;6.70;;
43048;SDS011;28673;44.412;11.918;2023-05-09T11:46:10;10.70;;;7.43;;
43048;SDS011;28673;44.412;11.918;2023-05-09T11:48:39;8.75;;;6.70;;
43048;SDS011;28673;44.412;11.918;2023-05-09T11:51:19;10.85;;;6.90;;
43048;SDS011;28673;44.412;11.918;2023-05-09T11:53:52;8.02;;;5.20;;
43048;SDS011;28673;44.412;11.918;2023-05-09T11:56:24;9.35;;;5.22;;
43048;SDS011;28673;44.412;11.918;2023-05-09T11:58:50;7.72;;;5.45;;
43048;SDS011;28673;44.412;11.918;2023-05-09T12:01:17;6.63;;;5.40;;
43048;SDS011;28673;44.412;11.918;2023-05-09T12:03:47;6.50;;;5.50;;
43048;SDS011;28673;44.412;11.918;2023-05-09T12:06:15;6.68;;;5.10;;
43048;SDS011;28673;44.412;11.918;2023-05-09T12:08:43;10.00;;;5.18;;
43048;SDS011;28673;44.412;11.918;2023-05-09T12:11:10;7.03;;;5.03;;
43048;SDS011;28673;44.412;11.918;2023-05-09T12:13:43;6.38;;;5.43;;
43048;SDS011;28673;44.412;11.918;2023-05-09T12:16:11;8.88;;;6.20;;
43048;SDS011;28673;44.412;11.918;2023-05-09T12:18:37;9.82;;;5.35;;
43048;SDS011;28673;44.412;11.918;2023-05-09T12:21:10;4.45;;;3.88;;
43048;SDS011;28673;44.412;11.918;2023-05-09T12:23:37;6.65;;;4.93;;
43048;SDS011;28673;44.412;11.918;2023-05-09T12:26:03;8.38;;;4.97;;
43048;SDS011;28673;44.412;11.918;2023-05-09T12:28:33;7.50;;;5.03;;
43048;SDS011;28673;44.412;11.918;2023-05-09T12:31:03;5.47;;;4.78;;
43048;SDS011;28673;44.412;11.918;2023-05-09T12:33:29;6.35;;;5.00;;
43048;SDS011;28673;44.412;11.918;2023-05-09T12:36:03;8.88;;;4.85;;
43048;SDS011;28673;44.412;11.918;2023-05-09T12:38:32;5.18;;;4.55;;
43048;SDS011;28673;44.412;11.918;2023-05-09T12:41:07;12.05;;;5.43;;
43048;SDS011;28673;44.412;11.918;2023-05-09T12:43:36;6.55;;;4.82;;
43048;SDS011;28673;44.412;11.918;2023-05-09T12:46:03;7.35;;;4.43;;
43048;SDS011;28673;44.412;11.918;2023-05-09T12:48:34;4.32;;;3.92;;
43048;SDS011;28673;44.412;11.918;2023-05-09T12:51:03;5.93;;;5.18;;
43048;SDS011;28673;44.412;11.918;2023-05-09T12:53:30;7.00;;;4.38;;
43048;SDS011;28673;44.412;11.918;2023-05-09T12:56:03;8.73;;;4.72;;
43048;SDS011;28673;44.412;11.918;2023-05-09T12:58:35;6.93;;;4.40;;
43048;SDS011;28673;44.412;11.918;2023-05-09T13:01:04;9.00;;;4.45;;
43048;SDS011;28673;44.412;11.918;2023-05-09T13:03:31;6.50;;;3.90;;
43048;SDS011;28673;44.412;11.918;2023-05-09T13:06:08;8.05;;;5.00;;
43048;SDS011;28673;44.412;11.918;2023-05-09T13:08:37;5.97;;;4.45;;
43048;SDS011;28673;44.412;11.918;2023-05-09T13:11:04;5.40;;;4.20;;
43048;SDS011;28673;44.412;11.918;2023-05-09T13:13:31;4.32;;;3.15;;
43048;SDS011;28673;44.412;11.918;2023-05-09T13:15:57;5.15;;;3.72;;
43048;SDS011;28673;44.412;11.918;2023-05-09T13:18:23;6.80;;;3.75;;
43048;SDS011;28673;44.412;11.918;2023-05-09T13:20:49;8.88;;;3.92;;
43048;SDS011;28673;44.412;11.918;2023-05-09T13:23:18;6.55;;;3.97;;
43048;SDS011;28673;44.412;11.918;2023-05-09T13:25:44;4.22;;;3.15;;
43048;SDS011;28673;44.412;11.918;2023-05-09T13:28:10;4.93;;;3.28;;
43048;SDS011;28673;44.412;11.918;2023-05-09T13:30:36;4.45;;;3.63;;
43048;SDS011;28673;44.412;11.918;2023-05-09T13:33:04;3.42;;;3.13;;
43048;SDS011;28673;44.412;11.918;2023-05-09T13:35:30;5.28;;;4.30;;
43048;SDS011;28673;44.412;11.918;2023-05-09T13:37:56;4.25;;;3.55;;
43048;SDS011;28673;44.412;11.918;2023-05-09T13:40:23;3.83;;;3.30;;
43048;SDS011;28673;44.412;11.918;2023-05-09T13:42:49;4.22;;;3.40;;
43048;SDS011;28673;44.412;11.918;2023-05-09T13:45:15;4.22;;;2.95;;
43048;SDS011;28673;44.412;11.918;2023-05-09T13:47:41;3.85;;;3.45;;
43048;SDS011;28673;44.412;11.918;2023-05-09T13:50:09;4.88;;;3.83;;
43048;SDS011;28673;44.412;11.918;2023-05-09T13:52:38;4.25;;;3.38;;
43048;SDS011;28673;44.412;11.918;2023-05-09T13:55:04;4.75;;;3.40;;
43048;SDS011;28673;44.412;11.918;2023-05-09T13:57:31;10.85;;;3.03;;
43048;SDS011;28673;44.412;11.918;2023-05-09T13:59:57;3.95;;;3.45;;
43048;SDS011;28673;44.412;11.918;2023-05-09T14:02:23;5.28;;;3.50;;
43048;SDS011;28673;44.412;11.918;2023-05-09T14:04:49;3.58;;;3.28;;
43048;SDS011;28673;44.412;11.918;2023-05-09T14:07:15;6.95;;;4.70;;
43048;SDS011;28673;44.412;11.918;2023-05-09T14:09:42;6.50;;;4.70;;
43048;SDS011;28673;44.412;11.918;2023-05-09T14:12:08;5.38;;;4.80;;
43048;SDS011;28673;44.412;11.918;2023-05-09T14:14:34;4.38;;;3.83;;
43048;SDS011;28673;44.412;11.918;2023-05-09T14:17:00;7.68;;;4.20;;
43048;SDS011;28673;44.412;11.918;2023-05-09T14:19:27;5.75;;;4.65;;
43048;SDS011;28673;44.412;11.918;2023-05-09T14:21:54;6.00;;;4.03;;
43048;SDS011;28673;44.412;11.918;2023-05-09T14:24:20;9.60;;;3.80;;
43048;SDS011;28673;44.412;11.918;2023-05-09T14:26:46;5.53;;;3.17;;
43048;SDS011;28673;44.412;11.918;2023-05-09T14:29:12;3.88;;;3.35;;
43048;SDS011;28673;44.412;11.918;2023-05-09T14:31:38;6.70;;;2.92;;
43048;SDS011;28673;44.412;11.918;2023-05-09T14:34:04;13.95;;;4.63;;
43048;SDS011;28673;44.412;11.918;2023-05-09T14:36:30;7.53;;;3.80;;
43048;SDS011;28673;44.412;11.918;2023-05-09T14:38:56;17.02;;;6.50;;